Lafayette, Ohio
Current Conditions -  °F | °C
As of 6:53 AM on Tuesday 21 Oct 2014 (Local Time) from KAOH Reporting Station
Overcast Overcast  
Wind Chill: 43°   Ceiling: 2000
Heat Index: 48°   Visibility: 9mi
Dew Point: 43°   Wind: 10mph
Humidity: 83%   Direction: 300°WNW
Pressure: 29.95"   Gusts: NA
Location:  40.76°N, 83.95°W
Report Text: KAOH 211053Z AUTO 30009KT 9SM FEW014 OVC020 09/06 A2995 RMK AO2 SLP142 T00890061
Loading
Personal Weather Stations






























Interactive Weather Map
Tropical Storm Tracking
New forecast layout! Learn more

10-Day Weather Forecast

Advertisements
Track Severe Weather on mobile